sensor_id;sensor_type;location;lat;lon;timestamp;temperature;humidity
10051;DHT22;5065;46.942;7.432;2023-06-10T00:01:54;22.20;99.90
10051;DHT22;5065;46.942;7.432;2023-06-10T00:04:25;22.10;99.90
10051;DHT22;5065;46.942;7.432;2023-06-10T00:06:52;22.10;99.90
10051;DHT22;5065;46.942;7.432;2023-06-10T00:09:20;22.10;99.90
10051;DHT22;5065;46.942;7.432;2023-06-10T00:11:48;22.00;99.90
10051;DHT22;5065;46.942;7.432;2023-06-10T00:14:16;21.90;99.90
10051;DHT22;5065;46.942;7.432;2023-06-10T00:16:44;21.80;99.90
10051;DHT22;5065;46.942;7.432;2023-06-10T00:19:11;21.70;99.90
10051;DHT22;5065;46.942;7.432;2023-06-10T00:21:41;21.60;99.90
10051;DHT22;5065;46.942;7.432;2023-06-10T00:24:11;21.60;99.90
10051;DHT22;5065;46.942;7.432;2023-06-10T00:26:38;21.50;99.90
10051;DHT22;5065;46.942;7.432;2023-06-10T00:29:06;21.40;99.90
10051;DHT22;5065;46.942;7.432;2023-06-10T00:31:36;21.30;99.90
10051;DHT22;5065;46.942;7.432;2023-06-10T00:34:03;21.30;99.90
10051;DHT22;5065;46.942;7.432;2023-06-10T00:36:31;21.30;99.90
10051;DHT22;5065;46.942;7.432;2023-06-10T00:38:58;21.20;99.90
10051;DHT22;5065;46.942;7.432;2023-06-10T00:41:25;21.20;99.90
10051;DHT22;5065;46.942;7.432;2023-06-10T00:43:53;21.10;99.90
10051;DHT22;5065;46.942;7.432;2023-06-10T00:46:21;21.10;99.90
10051;DHT22;5065;46.942;7.432;2023-06-10T00:48:50;21.00;99.90
10051;DHT22;5065;46.942;7.432;2023-06-10T00:51:18;20.90;99.90
10051;DHT22;5065;46.942;7.432;2023-06-10T00:53:45;20.90;99.90
10051;DHT22;5065;46.942;7.432;2023-06-10T00:56:13;20.90;99.90
10051;DHT22;5065;46.942;7.432;2023-06-10T00:58:41;20.90;99.90
10051;DHT22;5065;46.942;7.432;2023-06-10T01:01:08;20.80;99.90
10051;DHT22;5065;46.942;7.432;2023-06-10T01:03:36;20.70;99.90
10051;DHT22;5065;46.942;7.432;2023-06-10T01:06:08;20.70;99.90
10051;DHT22;5065;46.942;7.432;2023-06-10T01:08:43;20.70;99.90
10051;DHT22;5065;46.942;7.432;2023-06-10T01:11:19;20.60;99.90
10051;DHT22;5065;46.942;7.432;2023-06-10T01:13:50;20.60;99.90
10051;DHT22;5065;46.942;7.432;2023-06-10T01:16:19;20.60;99.90
10051;DHT22;5065;46.942;7.432;2023-06-10T01:18:46;20.60;99.90
10051;DHT22;5065;46.942;7.432;2023-06-10T01:21:19;20.60;99.90
10051;DHT22;5065;46.942;7.432;2023-06-10T01:23:47;20.60;99.90
10051;DHT22;5065;46.942;7.432;2023-06-10T01:26:15;20.60;99.90
10051;DHT22;5065;46.942;7.432;2023-06-10T01:28:48;20.60;99.90
10051;DHT22;5065;46.942;7.432;2023-06-10T01:31:27;20.60;99.90
10051;DHT22;5065;46.942;7.432;2023-06-10T01:34:00;20.60;99.90
10051;DHT22;5065;46.942;7.432;2023-06-10T01:36:31;20.60;99.90
10051;DHT22;5065;46.942;7.432;2023-06-10T01:38:59;20.50;99.90
10051;DHT22;5065;46.942;7.432;2023-06-10T01:41:27;20.40;99.90
10051;DHT22;5065;46.942;7.432;2023-06-10T01:43:55;20.50;99.90
10051;DHT22;5065;46.942;7.432;2023-06-10T01:46:22;20.60;99.90
10051;DHT22;5065;46.942;7.432;2023-06-10T01:48:49;20.50;99.90
10051;DHT22;5065;46.942;7.432;2023-06-10T01:51:17;20.50;99.90
10051;DHT22;5065;46.942;7.432;2023-06-10T01:53:46;20.50;99.90
10051;DHT22;5065;46.942;7.432;2023-06-10T01:56:13;20.50;99.90
10051;DHT22;5065;46.942;7.432;2023-06-10T01:58:43;20.50;99.90
10051;DHT22;5065;46.942;7.432;2023-06-10T02:01:10;20.50;99.90
10051;DHT22;5065;46.942;7.432;2023-06-10T02:03:38;20.50;99.90
10051;DHT22;5065;46.942;7.432;2023-06-10T02:06:05;20.50;99.90
10051;DHT22;5065;46.942;7.432;2023-06-10T02:08:32;20.60;99.90
10051;DHT22;5065;46.942;7.432;2023-06-10T02:11:01;20.50;99.90
10051;DHT22;5065;46.942;7.432;2023-06-10T02:13:28;20.60;99.90
10051;DHT22;5065;46.942;7.432;2023-06-10T02:15:55;20.60;99.90
10051;DHT22;5065;46.942;7.432;2023-06-10T02:18:22;20.60;99.90
10051;DHT22;5065;46.942;7.432;2023-06-10T02:20:49;20.60;99.90
10051;DHT22;5065;46.942;7.432;2023-06-10T02:23:16;20.60;99.90
10051;DHT22;5065;46.942;7.432;2023-06-10T02:25:43;20.60;99.90
10051;DHT22;5065;46.942;7.432;2023-06-10T02:28:12;20.60;99.90
10051;DHT22;5065;46.942;7.432;2023-06-10T02:30:40;20.60;99.90
10051;DHT22;5065;46.942;7.432;2023-06-10T02:33:08;20.60;99.90
10051;DHT22;5065;46.942;7.432;2023-06-10T02:35:37;20.60;99.90
10051;DHT22;5065;46.942;7.432;2023-06-10T02:38:04;20.60;99.90
10051;DHT22;5065;46.942;7.432;2023-06-10T02:40:31;20.50;99.90
10051;DHT22;5065;46.942;7.432;2023-06-10T02:42:59;20.50;99.90
10051;DHT22;5065;46.942;7.432;2023-06-10T02:45:27;20.50;99.90
10051;DHT22;5065;46.942;7.432;2023-06-10T02:47:54;20.50;99.90
10051;DHT22;5065;46.942;7.432;2023-06-10T02:50:21;20.50;99.90
10051;DHT22;5065;46.942;7.432;2023-06-10T02:52:48;20.50;99.90
10051;DHT22;5065;46.942;7.432;2023-06-10T02:55:16;20.40;99.90
10051;DHT22;5065;46.942;7.432;2023-06-10T02:57:43;20.40;99.90
10051;DHT22;5065;46.942;7.432;2023-06-10T03:00:11;20.40;99.90
10051;DHT22;5065;46.942;7.432;2023-06-10T03:02:41;20.40;99.90
10051;DHT22;5065;46.942;7.432;2023-06-10T03:05:08;20.50;99.90
10051;DHT22;5065;46.942;7.432;2023-06-10T03:07:36;20.40;99.90
10051;DHT22;5065;46.942;7.432;2023-06-10T03:10:04;20.50;99.90
10051;DHT22;5065;46.942;7.432;2023-06-10T03:12:32;20.40;99.90
10051;DHT22;5065;46.942;7.432;2023-06-10T03:14:59;20.40;99.90
10051;DHT22;5065;46.942;7.432;2023-06-10T03:17:26;20.40;99.90
10051;DHT22;5065;46.942;7.432;2023-06-10T03:19:54;20.40;99.90
10051;DHT22;5065;46.942;7.432;2023-06-10T03:22:21;20.40;99.90
10051;DHT22;5065;46.942;7.432;2023-06-10T03:24:48;20.30;99.90
10051;DHT22;5065;46.942;7.432;2023-06-10T03:27:16;20.30;99.90
10051;DHT22;5065;46.942;7.432;2023-06-10T03:29:43;20.30;99.90
10051;DHT22;5065;46.942;7.432;2023-06-10T03:32:11;20.30;99.90
10051;DHT22;5065;46.942;7.432;2023-06-10T03:34:38;20.30;99.90
10051;DHT22;5065;46.942;7.432;2023-06-10T03:37:06;20.30;99.90
10051;DHT22;5065;46.942;7.432;2023-06-10T03:39:33;20.30;99.90
10051;DHT22;5065;46.942;7.432;2023-06-10T03:42:01;20.30;99.90
10051;DHT22;5065;46.942;7.432;2023-06-10T03:44:28;20.30;99.90
10051;DHT22;5065;46.942;7.432;2023-06-10T03:46:55;20.20;99.90
10051;DHT22;5065;46.942;7.432;2023-06-10T03:49:23;20.20;99.90
10051;DHT22;5065;46.942;7.432;2023-06-10T03:51:52;20.20;99.90
10051;DHT22;5065;46.942;7.432;2023-06-10T03:54:21;20.20;99.90
10051;DHT22;5065;46.942;7.432;2023-06-10T03:56:48;20.10;99.90
10051;DHT22;5065;46.942;7.432;2023-06-10T03:59:16;20.10;99.90
10051;DHT22;5065;46.942;7.432;2023-06-10T04:01:43;20.10;99.90
10051;DHT22;5065;46.942;7.432;2023-06-10T04:04:13;20.10;99.90
10051;DHT22;5065;46.942;7.432;2023-06-10T04:06:43;20.10;99.90
10051;DHT22;5065;46.942;7.432;2023-06-10T04:09:10;20.10;99.90
10051;DHT22;5065;46.942;7.432;2023-06-10T04:11:39;20.00;99.90
10051;DHT22;5065;46.942;7.432;2023-06-10T04:14:07;20.00;99.90
10051;DHT22;5065;46.942;7.432;2023-06-10T04:16:34;20.10;99.90
10051;DHT22;5065;46.942;7.432;2023-06-10T04:19:01;20.00;99.90
10051;DHT22;5065;46.942;7.432;2023-06-10T04:21:28;19.90;99.90
10051;DHT22;5065;46.942;7.432;2023-06-10T04:23:55;19.90;99.90
10051;DHT22;5065;46.942;7.432;2023-06-10T04:26:23;20.00;99.90
10051;DHT22;5065;46.942;7.432;2023-06-10T04:28:52;20.00;99.90
10051;DHT22;5065;46.942;7.432;2023-06-10T04:31:20;19.90;99.90
10051;DHT22;5065;46.942;7.432;2023-06-10T04:33:47;20.00;99.90
10051;DHT22;5065;46.942;7.432;2023-06-10T04:36:14;20.00;99.90
10051;DHT22;5065;46.942;7.432;2023-06-10T04:38:41;20.00;99.90
10051;DHT22;5065;46.942;7.432;2023-06-10T04:41:08;19.90;99.90
10051;DHT22;5065;46.942;7.432;2023-06-10T04:43:36;20.00;99.90
10051;DHT22;5065;46.942;7.432;2023-06-10T04:46:05;20.00;99.90
10051;DHT22;5065;46.942;7.432;2023-06-10T04:48:32;20.00;99.90
10051;DHT22;5065;46.942;7.432;2023-06-10T04:51:01;20.00;99.90
10051;DHT22;5065;46.942;7.432;2023-06-10T04:53:28;20.00;99.90
10051;DHT22;5065;46.942;7.432;2023-06-10T04:55:56;20.10;99.90
10051;DHT22;5065;46.942;7.432;2023-06-10T04:58:24;20.10;99.90
10051;DHT22;5065;46.942;7.432;2023-06-10T05:00:51;20.00;99.90
10051;DHT22;5065;46.942;7.432;2023-06-10T05:03:19;20.00;99.90
10051;DHT22;5065;46.942;7.432;2023-06-10T05:05:47;20.00;99.90
10051;DHT22;5065;46.942;7.432;2023-06-10T05:08:14;20.00;99.90
10051;DHT22;5065;46.942;7.432;2023-06-10T05:10:41;20.00;99.90
10051;DHT22;5065;46.942;7.432;2023-06-10T05:13:08;20.00;99.90
10051;DHT22;5065;46.942;7.432;2023-06-10T05:15:35;19.90;99.90
10051;DHT22;5065;46.942;7.432;2023-06-10T05:18:02;19.90;99.90
10051;DHT22;5065;46.942;7.432;2023-06-10T05:20:31;19.90;99.90
10051;DHT22;5065;46.942;7.432;2023-06-10T05:22:58;19.90;99.90
10051;DHT22;5065;46.942;7.432;2023-06-10T05:25:26;19.90;99.90
10051;DHT22;5065;46.942;7.432;2023-06-10T05:27:53;19.90;99.90
10051;DHT22;5065;46.942;7.432;2023-06-10T05:30:21;19.90;99.90
10051;DHT22;5065;46.942;7.432;2023-06-10T05:32:50;19.80;99.90
10051;DHT22;5065;46.942;7.432;2023-06-10T05:35:18;19.90;99.90
10051;DHT22;5065;46.942;7.432;2023-06-10T05:37:47;19.90;99.90
10051;DHT22;5065;46.942;7.432;2023-06-10T05:40:14;19.90;99.90
10051;DHT22;5065;46.942;7.432;2023-06-10T05:42:41;19.90;99.90
10051;DHT22;5065;46.942;7.432;2023-06-10T05:45:09;19.80;99.90
10051;DHT22;5065;46.942;7.432;2023-06-10T05:47:37;19.80;99.90
10051;DHT22;5065;46.942;7.432;2023-06-10T05:50:06;19.80;99.90
10051;DHT22;5065;46.942;7.432;2023-06-10T05:52:35;19.90;99.90
10051;DHT22;5065;46.942;7.432;2023-06-10T05:55:04;19.80;99.90
10051;DHT22;5065;46.942;7.432;2023-06-10T05:57:31;19.80;99.90
10051;DHT22;5065;46.942;7.432;2023-06-10T05:59:58;19.80;99.90
10051;DHT22;5065;46.942;7.432;2023-06-10T06:02:25;19.80;99.90
10051;DHT22;5065;46.942;7.432;2023-06-10T06:04:52;19.90;99.90
10051;DHT22;5065;46.942;7.432;2023-06-10T06:07:19;19.80;99.90
10051;DHT22;5065;46.942;7.432;2023-06-10T06:09:47;19.80;99.90
10051;DHT22;5065;46.942;7.432;2023-06-10T06:12:15;19.80;99.90
10051;DHT22;5065;46.942;7.432;2023-06-10T06:14:43;19.80;99.90
10051;DHT22;5065;46.942;7.432;2023-06-10T06:17:10;19.80;99.90
10051;DHT22;5065;46.942;7.432;2023-06-10T06:19:38;19.80;99.90
10051;DHT22;5065;46.942;7.432;2023-06-10T06:22:05;19.80;99.90
10051;DHT22;5065;46.942;7.432;2023-06-10T06:24:32;19.90;99.90
10051;DHT22;5065;46.942;7.432;2023-06-10T06:26:59;19.90;99.90
10051;DHT22;5065;46.942;7.432;2023-06-10T06:29:28;19.90;99.90
10051;DHT22;5065;46.942;7.432;2023-06-10T06:31:56;19.90;99.90
10051;DHT22;5065;46.942;7.432;2023-06-10T06:34:23;20.00;99.90
10051;DHT22;5065;46.942;7.432;2023-06-10T06:36:51;20.00;99.90
10051;DHT22;5065;46.942;7.432;2023-06-10T06:39:18;20.10;99.90
10051;DHT22;5065;46.942;7.432;2023-06-10T06:41:45;20.10;99.90
10051;DHT22;5065;46.942;7.432;2023-06-10T06:44:12;20.10;99.90
10051;DHT22;5065;46.942;7.432;2023-06-10T06:46:41;20.10;99.90
10051;DHT22;5065;46.942;7.432;2023-06-10T06:49:08;20.10;99.90
10051;DHT22;5065;46.942;7.432;2023-06-10T06:51:35;20.20;99.90
10051;DHT22;5065;46.942;7.432;2023-06-10T06:54:03;20.20;99.90
10051;DHT22;5065;46.942;7.432;2023-06-10T06:56:31;20.10;99.90
10051;DHT22;5065;46.942;7.432;2023-06-10T06:58:58;20.10;99.90
10051;DHT22;5065;46.942;7.432;2023-06-10T07:01:25;20.10;99.90
10051;DHT22;5065;46.942;7.432;2023-06-10T07:03:54;20.20;99.90
10051;DHT22;5065;46.942;7.432;2023-06-10T07:06:21;20.20;99.90
10051;DHT22;5065;46.942;7.432;2023-06-10T07:08:49;20.30;99.90
10051;DHT22;5065;46.942;7.432;2023-06-10T07:11:17;20.30;99.90
10051;DHT22;5065;46.942;7.432;2023-06-10T07:13:44;20.40;99.90
10051;DHT22;5065;46.942;7.432;2023-06-10T07:16:11;20.40;99.90
10051;DHT22;5065;46.942;7.432;2023-06-10T07:18:38;20.50;99.90
10051;DHT22;5065;46.942;7.432;2023-06-10T07:21:07;20.50;99.90
10051;DHT22;5065;46.942;7.432;2023-06-10T07:23:34;20.50;99.90
10051;DHT22;5065;46.942;7.432;2023-06-10T07:26:01;20.50;99.90
10051;DHT22;5065;46.942;7.432;2023-06-10T07:28:28;20.30;99.90
10051;DHT22;5065;46.942;7.432;2023-06-10T07:30:55;20.30;99.90
10051;DHT22;5065;46.942;7.432;2023-06-10T07:33:23;20.30;99.90
10051;DHT22;5065;46.942;7.432;2023-06-10T07:35:50;20.40;99.90
10051;DHT22;5065;46.942;7.432;2023-06-10T07:38:18;20.40;99.90
10051;DHT22;5065;46.942;7.432;2023-06-10T07:40:46;20.50;99.90
10051;DHT22;5065;46.942;7.432;2023-06-10T07:43:13;20.50;99.90
10051;DHT22;5065;46.942;7.432;2023-06-10T07:45:40;20.50;99.90
10051;DHT22;5065;46.942;7.432;2023-06-10T07:48:08;20.50;99.90
10051;DHT22;5065;46.942;7.432;2023-06-10T07:50:35;20.50;99.90
10051;DHT22;5065;46.942;7.432;2023-06-10T07:53:03;20.60;99.90
10051;DHT22;5065;46.942;7.432;2023-06-10T07:55:32;20.50;99.90
10051;DHT22;5065;46.942;7.432;2023-06-10T07:57:59;20.60;99.90
10051;DHT22;5065;46.942;7.432;2023-06-10T08:00:26;20.60;99.90
10051;DHT22;5065;46.942;7.432;2023-06-10T08:02:53;20.60;99.90
10051;DHT22;5065;46.942;7.432;2023-06-10T08:05:21;20.60;99.90
10051;DHT22;5065;46.942;7.432;2023-06-10T08:07:48;20.70;99.90
10051;DHT22;5065;46.942;7.432;2023-06-10T08:10:15;20.70;99.90
10051;DHT22;5065;46.942;7.432;2023-06-10T08:12:44;20.80;99.90
10051;DHT22;5065;46.942;7.432;2023-06-10T08:15:12;20.90;99.90
10051;DHT22;5065;46.942;7.432;2023-06-10T08:17:39;20.90;99.90
10051;DHT22;5065;46.942;7.432;2023-06-10T08:20:07;21.00;99.90
10051;DHT22;5065;46.942;7.432;2023-06-10T08:22:34;21.00;99.90
10051;DHT22;5065;46.942;7.432;2023-06-10T08:25:01;21.00;99.90
10051;DHT22;5065;46.942;7.432;2023-06-10T08:27:28;21.10;99.90
10051;DHT22;5065;46.942;7.432;2023-06-10T08:29:56;21.20;99.90
10051;DHT22;5065;46.942;7.432;2023-06-10T08:32:26;21.20;99.90
10051;DHT22;5065;46.942;7.432;2023-06-10T08:34:53;21.20;99.90
10051;DHT22;5065;46.942;7.432;2023-06-10T08:37:20;21.20;99.90
10051;DHT22;5065;46.942;7.432;2023-06-10T08:39:47;21.20;99.90
10051;DHT22;5065;46.942;7.432;2023-06-10T08:42:21;21.30;99.90
10051;DHT22;5065;46.942;7.432;2023-06-10T08:44:53;21.40;99.90
10051;DHT22;5065;46.942;7.432;2023-06-10T08:47:23;21.50;99.90
10051;DHT22;5065;46.942;7.432;2023-06-10T08:49:51;21.60;99.90
10051;DHT22;5065;46.942;7.432;2023-06-10T08:52:20;21.60;99.90
10051;DHT22;5065;46.942;7.432;2023-06-10T08:54:52;21.70;99.90
10051;DHT22;5065;46.942;7.432;2023-06-10T08:57:19;21.80;99.90
10051;DHT22;5065;46.942;7.432;2023-06-10T08:59:47;21.90;99.90
10051;DHT22;5065;46.942;7.432;2023-06-10T09:02:16;22.00;99.90
10051;DHT22;5065;46.942;7.432;2023-06-10T09:04:47;22.10;99.90
10051;DHT22;5065;46.942;7.432;2023-06-10T09:07:15;22.10;99.90
10051;DHT22;5065;46.942;7.432;2023-06-10T09:09:43;22.10;99.90
10051;DHT22;5065;46.942;7.432;2023-06-10T09:12:10;22.10;99.90
10051;DHT22;5065;46.942;7.432;2023-06-10T09:14:38;22.10;99.90
10051;DHT22;5065;46.942;7.432;2023-06-10T09:17:06;22.20;99.90
10051;DHT22;5065;46.942;7.432;2023-06-10T09:19:33;22.20;99.90
10051;DHT22;5065;46.942;7.432;2023-06-10T09:22:02;22.30;99.90
10051;DHT22;5065;46.942;7.432;2023-06-10T09:24:30;22.40;99.90
10051;DHT22;5065;46.942;7.432;2023-06-10T09:27:03;22.40;99.90
10051;DHT22;5065;46.942;7.432;2023-06-10T09:29:31;22.50;99.90
10051;DHT22;5065;46.942;7.432;2023-06-10T09:31:58;22.50;99.90
10051;DHT22;5065;46.942;7.432;2023-06-10T09:34:25;22.60;99.90
10051;DHT22;5065;46.942;7.432;2023-06-10T09:36:53;22.70;99.90
10051;DHT22;5065;46.942;7.432;2023-06-10T09:39:22;22.80;99.90
10051;DHT22;5065;46.942;7.432;2023-06-10T09:41:49;22.90;99.90
10051;DHT22;5065;46.942;7.432;2023-06-10T09:44:18;23.10;99.90
10051;DHT22;5065;46.942;7.432;2023-06-10T09:46:46;23.20;99.90
10051;DHT22;5065;46.942;7.432;2023-06-10T09:49:13;23.40;99.90
10051;DHT22;5065;46.942;7.432;2023-06-10T09:51:49;23.60;99.90
10051;DHT22;5065;46.942;7.432;2023-06-10T09:54:17;23.60;99.90
10051;DHT22;5065;46.942;7.432;2023-06-10T09:56:48;23.70;99.90
10051;DHT22;5065;46.942;7.432;2023-06-10T09:59:16;23.70;99.90
10051;DHT22;5065;46.942;7.432;2023-06-10T10:01:43;23.80;99.90
10051;DHT22;5065;46.942;7.432;2023-06-10T10:04:10;23.90;99.90
10051;DHT22;5065;46.942;7.432;2023-06-10T10:06:38;24.00;99.90
10051;DHT22;5065;46.942;7.432;2023-06-10T10:09:06;24.10;99.90
10051;DHT22;5065;46.942;7.432;2023-06-10T10:11:33;24.10;99.90
10051;DHT22;5065;46.942;7.432;2023-06-10T10:14:04;24.20;99.90
10051;DHT22;5065;46.942;7.432;2023-06-10T10:16:36;24.30;99.90
10051;DHT22;5065;46.942;7.432;2023-06-10T10:19:08;24.30;99.90
10051;DHT22;5065;46.942;7.432;2023-06-10T10:21:43;24.30;99.90
10051;DHT22;5065;46.942;7.432;2023-06-10T10:24:16;24.30;99.90
10051;DHT22;5065;46.942;7.432;2023-06-10T10:26:46;24.30;99.90
10051;DHT22;5065;46.942;7.432;2023-06-10T10:29:20;24.40;99.90
10051;DHT22;5065;46.942;7.432;2023-06-10T10:31:51;24.40;99.90
10051;DHT22;5065;46.942;7.432;2023-06-10T10:34:25;24.50;99.90
10051;DHT22;5065;46.942;7.432;2023-06-10T10:36:57;24.70;99.90
10051;DHT22;5065;46.942;7.432;2023-06-10T10:39:24;24.80;99.90
10051;DHT22;5065;46.942;7.432;2023-06-10T10:41:54;25.00;99.90
10051;DHT22;5065;46.942;7.432;2023-06-10T10:44:24;25.20;99.90
10051;DHT22;5065;46.942;7.432;2023-06-10T10:46:52;25.30;99.90
10051;DHT22;5065;46.942;7.432;2023-06-10T10:49:20;25.30;99.90
10051;DHT22;5065;46.942;7.432;2023-06-10T10:51:55;25.30;99.90
10051;DHT22;5065;46.942;7.432;2023-06-10T10:54:29;25.20;99.90
10051;DHT22;5065;46.942;7.432;2023-06-10T10:57:13;25.20;99.90
10051;DHT22;5065;46.942;7.432;2023-06-10T10:59:52;25.10;99.90
10051;DHT22;5065;46.942;7.432;2023-06-10T11:02:37;25.10;99.90
10051;DHT22;5065;46.942;7.432;2023-06-10T11:05:09;25.00;99.90
10051;DHT22;5065;46.942;7.432;2023-06-10T11:07:37;25.10;99.90
10051;DHT22;5065;46.942;7.432;2023-06-10T11:10:07;25.00;99.90
10051;DHT22;5065;46.942;7.432;2023-06-10T11:12:51;24.90;99.90
10051;DHT22;5065;46.942;7.432;2023-06-10T11:15:23;24.80;99.90
10051;DHT22;5065;46.942;7.432;2023-06-10T11:18:10;24.70;99.90
10051;DHT22;5065;46.942;7.432;2023-06-10T11:20:59;24.80;99.90
10051;DHT22;5065;46.942;7.432;2023-06-10T11:23:41;24.80;99.90
10051;DHT22;5065;46.942;7.432;2023-06-10T11:26:13;24.80;99.90
10051;DHT22;5065;46.942;7.432;2023-06-10T11:28:41;24.90;99.90
10051;DHT22;5065;46.942;7.432;2023-06-10T11:31:18;24.90;99.90
10051;DHT22;5065;46.942;7.432;2023-06-10T11:33:47;25.10;99.90
10051;DHT22;5065;46.942;7.432;2023-06-10T11:36:15;25.10;99.90
10051;DHT22;5065;46.942;7.432;2023-06-10T11:38:44;25.20;99.90
10051;DHT22;5065;46.942;7.432;2023-06-10T11:41:11;25.20;99.90
10051;DHT22;5065;46.942;7.432;2023-06-10T11:43:42;25.30;99.90
10051;DHT22;5065;46.942;7.432;2023-06-10T11:46:12;25.30;99.90
10051;DHT22;5065;46.942;7.432;2023-06-10T11:48:39;25.30;99.90
10051;DHT22;5065;46.942;7.432;2023-06-10T11:51:06;25.20;99.90
10051;DHT22;5065;46.942;7.432;2023-06-10T11:53:34;25.20;99.90
10051;DHT22;5065;46.942;7.432;2023-06-10T11:56:01;25.20;99.90
10051;DHT22;5065;46.942;7.432;2023-06-10T11:58:29;25.10;99.90
10051;DHT22;5065;46.942;7.432;2023-06-10T12:00:56;25.10;99.90
10051;DHT22;5065;46.942;7.432;2023-06-10T12:03:25;25.00;99.90
10051;DHT22;5065;46.942;7.432;2023-06-10T12:05:56;25.10;99.90
10051;DHT22;5065;46.942;7.432;2023-06-10T12:08:24;25.00;99.90
10051;DHT22;5065;46.942;7.432;2023-06-10T12:10:52;25.00;99.90
10051;DHT22;5065;46.942;7.432;2023-06-10T12:13:20;25.00;99.90
10051;DHT22;5065;46.942;7.432;2023-06-10T12:15:47;25.00;99.90
10051;DHT22;5065;46.942;7.432;2023-06-10T12:18:18;24.90;99.90
10051;DHT22;5065;46.942;7.432;2023-06-10T12:20:47;24.90;99.90
10051;DHT22;5065;46.942;7.432;2023-06-10T12:23:16;24.90;99.90
10051;DHT22;5065;46.942;7.432;2023-06-10T12:25:50;24.80;99.90
10051;DHT22;5065;46.942;7.432;2023-06-10T12:28:21;24.80;99.90
10051;DHT22;5065;46.942;7.432;2023-06-10T12:30:48;24.80;99.90
10051;DHT22;5065;46.942;7.432;2023-06-10T12:33:19;24.80;99.90
10051;DHT22;5065;46.942;7.432;2023-06-10T12:35:51;24.70;99.90
10051;DHT22;5065;46.942;7.432;2023-06-10T12:38:23;24.80;99.90
10051;DHT22;5065;46.942;7.432;2023-06-10T12:40:53;24.90;99.90
10051;DHT22;5065;46.942;7.432;2023-06-10T12:43:24;24.90;99.90
10051;DHT22;5065;46.942;7.432;2023-06-10T12:45:51;25.00;99.90
10051;DHT22;5065;46.942;7.432;2023-06-10T12:48:20;25.10;99.90
10051;DHT22;5065;46.942;7.432;2023-06-10T12:50:51;25.10;99.90
10051;DHT22;5065;46.942;7.432;2023-06-10T12:53:18;25.20;99.90
10051;DHT22;5065;46.942;7.432;2023-06-10T12:55:46;25.20;99.90
10051;DHT22;5065;46.942;7.432;2023-06-10T12:58:13;25.20;99.90
10051;DHT22;5065;46.942;7.432;2023-06-10T13:00:41;25.20;99.90
10051;DHT22;5065;46.942;7.432;2023-06-10T13:03:09;25.30;99.90
10051;DHT22;5065;46.942;7.432;2023-06-10T13:05:37;25.30;99.90
10051;DHT22;5065;46.942;7.432;2023-06-10T13:08:06;25.30;99.90
10051;DHT22;5065;46.942;7.432;2023-06-10T13:10:38;25.30;99.90
10051;DHT22;5065;46.942;7.432;2023-06-10T13:13:05;25.30;99.90
10051;DHT22;5065;46.942;7.432;2023-06-10T13:15:35;25.40;99.90
10051;DHT22;5065;46.942;7.432;2023-06-10T13:18:03;25.40;99.90
10051;DHT22;5065;46.942;7.432;2023-06-10T13:20:31;25.40;99.90
10051;DHT22;5065;46.942;7.432;2023-06-10T13:22:58;25.50;99.90
10051;DHT22;5065;46.942;7.432;2023-06-10T13:25:26;25.50;99.90
10051;DHT22;5065;46.942;7.432;2023-06-10T13:27:54;25.60;99.90
10051;DHT22;5065;46.942;7.432;2023-06-10T13:30:21;25.60;99.90
10051;DHT22;5065;46.942;7.432;2023-06-10T13:32:48;25.60;99.90
10051;DHT22;5065;46.942;7.432;2023-06-10T13:35:15;25.70;99.90
10051;DHT22;5065;46.942;7.432;2023-06-10T13:37:42;25.70;99.90
10051;DHT22;5065;46.942;7.432;2023-06-10T13:40:10;25.70;99.90
10051;DHT22;5065;46.942;7.432;2023-06-10T13:42:39;25.70;99.90
10051;DHT22;5065;46.942;7.432;2023-06-10T13:45:07;25.70;99.90
10051;DHT22;5065;46.942;7.432;2023-06-10T13:47:35;25.70;99.90
10051;DHT22;5065;46.942;7.432;2023-06-10T13:50:02;25.70;99.90
10051;DHT22;5065;46.942;7.432;2023-06-10T13:52:29;25.70;99.90
10051;DHT22;5065;46.942;7.432;2023-06-10T13:54:56;25.70;99.90
10051;DHT22;5065;46.942;7.432;2023-06-10T13:57:23;25.70;99.90
10051;DHT22;5065;46.942;7.432;2023-06-10T13:59:52;25.70;99.90
10051;DHT22;5065;46.942;7.432;2023-06-10T14:02:19;25.60;99.90
10051;DHT22;5065;46.942;7.432;2023-06-10T14:04:46;25.60;99.90
10051;DHT22;5065;46.942;7.432;2023-06-10T14:07:13;25.60;99.90
10051;DHT22;5065;46.942;7.432;2023-06-10T14:09:41;25.50;99.90
10051;DHT22;5065;46.942;7.432;2023-06-10T14:12:08;25.50;99.90
10051;DHT22;5065;46.942;7.432;2023-06-10T14:14:36;25.40;99.90
10051;DHT22;5065;46.942;7.432;2023-06-10T14:17:05;25.30;99.90
10051;DHT22;5065;46.942;7.432;2023-06-10T14:19:32;25.20;99.90
10051;DHT22;5065;46.942;7.432;2023-06-10T14:21:59;25.20;99.90
10051;DHT22;5065;46.942;7.432;2023-06-10T14:24:27;25.10;99.90
10051;DHT22;5065;46.942;7.432;2023-06-10T14:26:54;25.10;99.90
10051;DHT22;5065;46.942;7.432;2023-06-10T14:29:22;25.00;99.90
10051;DHT22;5065;46.942;7.432;2023-06-10T14:31:49;25.00;99.90
10051;DHT22;5065;46.942;7.432;2023-06-10T14:34:18;25.00;99.90
10051;DHT22;5065;46.942;7.432;2023-06-10T14:36:46;25.00;99.90
10051;DHT22;5065;46.942;7.432;2023-06-10T14:39:14;25.00;99.90
10051;DHT22;5065;46.942;7.432;2023-06-10T14:41:41;25.00;99.90
10051;DHT22;5065;46.942;7.432;2023-06-10T14:44:08;25.00;99.90
10051;DHT22;5065;46.942;7.432;2023-06-10T14:46:35;25.00;99.90
10051;DHT22;5065;46.942;7.432;2023-06-10T14:49:02;25.00;99.90
10051;DHT22;5065;46.942;7.432;2023-06-10T14:51:31;24.90;99.90
10051;DHT22;5065;46.942;7.432;2023-06-10T14:53:58;24.90;99.90
10051;DHT22;5065;46.942;7.432;2023-06-10T14:56:25;24.90;99.90
10051;DHT22;5065;46.942;7.432;2023-06-10T14:58:52;24.90;99.90
10051;DHT22;5065;46.942;7.432;2023-06-10T15:01:19;24.90;99.90
10051;DHT22;5065;46.942;7.432;2023-06-10T15:03:46;24.90;99.90
10051;DHT22;5065;46.942;7.432;2023-06-10T15:06:14;24.90;99.90
10051;DHT22;5065;46.942;7.432;2023-06-10T15:08:44;24.90;99.90
10051;DHT22;5065;46.942;7.432;2023-06-10T15:11:11;25.00;99.90
10051;DHT22;5065;46.942;7.432;2023-06-10T15:13:38;25.00;99.90
10051;DHT22;5065;46.942;7.432;2023-06-10T15:16:05;25.00;99.90
10051;DHT22;5065;46.942;7.432;2023-06-10T15:18:33;25.00;99.90
10051;DHT22;5065;46.942;7.432;2023-06-10T15:21:00;25.00;99.90
10051;DHT22;5065;46.942;7.432;2023-06-10T15:23:27;25.00;99.90
10051;DHT22;5065;46.942;7.432;2023-06-10T15:25:55;25.00;99.90
10051;DHT22;5065;46.942;7.432;2023-06-10T15:28:22;25.00;99.90
10051;DHT22;5065;46.942;7.432;2023-06-10T15:30:50;25.00;99.90
10051;DHT22;5065;46.942;7.432;2023-06-10T15:33:17;25.00;99.90
10051;DHT22;5065;46.942;7.432;2023-06-10T15:35:44;25.00;99.90
10051;DHT22;5065;46.942;7.432;2023-06-10T15:38:11;25.00;99.90
10051;DHT22;5065;46.942;7.432;2023-06-10T15:40:40;25.00;99.90
10051;DHT22;5065;46.942;7.432;2023-06-10T15:43:09;25.10;99.90
10051;DHT22;5065;46.942;7.432;2023-06-10T15:45:36;25.10;99.90
10051;DHT22;5065;46.942;7.432;2023-06-10T15:48:04;25.10;99.90
10051;DHT22;5065;46.942;7.432;2023-06-10T15:50:31;25.20;99.90
10051;DHT22;5065;46.942;7.432;2023-06-10T15:52:58;25.20;99.90